Time;durP1;ratioP1;P1;durP2;ratioP2;P2;SDS_P1;SDS_P2;PMS_P1;PMS_P2;Temp;Humidity;BMP_temperature;BMP_pressure;BME280_temperature;BME280_humidity;BME280_pressure;Samples;Min_cycle;Max_cycle;Signal;HPM_P1;HPM_P2
2023/01/12 00:00:35;;;;;;;;;;;18.10;88.60;;;;;;5074996;28;19957;-56
2023/01/12 00:03:01;;;;;;;;;;;18.10;88.70;;;;;;5076152;28;19912;-54
2023/01/12 00:05:26;;;;;;;;;;;18.10;88.70;;;;;;5076222;28;20408;-57
2023/01/12 00:07:52;;;;;;;;;;;18.10;88.70;;;;;;5075002;28;19909;-56
2023/01/12 00:10:17;;;;;;;;;;;18.10;88.70;;;;;;5073456;28;19919;-54
2023/01/12 00:12:43;;;;;;;;;;;18.10;88.80;;;;;;5076277;28;20266;-55
2023/01/12 00:15:08;;;;;;;;;;;18.10;88.70;;;;;;5075869;28;19943;-57
2023/01/12 00:17:34;;;;;;;;;;;18.10;88.80;;;;;;5075606;28;19908;-56
2023/01/12 00:19:59;;;;;;;;;;;18.10;88.70;;;;;;5075238;28;19912;-55
2023/01/12 00:22:25;;;;;;;;;;;18.20;88.60;;;;;;5075168;28;19916;-55
2023/01/12 00:24:51;;;;;;;;;;;18.20;88.60;;;;;;5075660;28;19966;-54
2023/01/12 00:27:20;;;;;;;;;;;18.20;88.60;;;;;;5075471;28;19912;-56
2023/01/12 00:29:45;;;;;;;;;;;18.30;88.50;;;;;;5074377;28;20325;-55
2023/01/12 00:32:20;;;;;;;;;;;18.30;88.40;;;;;;5075360;28;19908;-53
2023/01/12 00:34:45;;;;;;;;;;;18.30;88.40;;;;;;5075971;28;19944;-55
2023/01/12 00:37:11;;;;;;;;;;;18.30;88.40;;;;;;5093331;28;20405;-54
2023/01/12 00:39:36;;;;;;;;;;;18.30;88.60;;;;;;5094721;28;19951;-55
2023/01/12 00:47:31;;;;;;;;;;;18.20;88.70;;;;;;5095427;28;20279;-55
2023/01/12 00:49:56;;;;;;;;;;;18.20;88.80;;;;;;5076387;28;19912;-56
2023/01/12 00:52:22;;;;;;;;;;;18.20;88.80;;;;;;5095577;28;19930;-55
2023/01/12 00:54:47;;;;;;;;;;;18.10;88.90;;;;;;5077285;28;19908;-56
2023/01/12 00:57:13;;;;;;;;;;;18.00;89.00;;;;;;5095444;28;19931;-54
2023/01/12 00:59:39;;;;;;;;;;;18.00;89.00;;;;;;5077218;28;19908;-54
2023/01/12 01:02:05;;;;;;;;;;;18.00;89.10;;;;;;5092716;28;19996;-56
2023/01/12 01:04:31;;;;;;;;;;;18.00;89.20;;;;;;5095276;28;20232;-56
2023/01/12 01:06:56;;;;;;;;;;;18.00;89.20;;;;;;5077056;28;19912;-53
2023/01/12 01:09:22;;;;;;;;;;;18.00;89.20;;;;;;5093200;28;20347;-53
2023/01/12 01:11:47;;;;;;;;;;;18.10;89.60;;;;;;5095461;28;20274;-54
2023/01/12 01:14:13;;;;;;;;;;;18.20;89.00;;;;;;5094762;28;20018;-56
2023/01/12 01:16:38;;;;;;;;;;;18.30;88.60;;;;;;5095040;28;19953;-54
2023/01/12 01:19:04;;;;;;;;;;;18.40;88.20;;;;;;5093606;28;19918;-54
2023/01/12 01:21:30;;;;;;;;;;;18.50;87.80;;;;;;5094921;28;19961;-55
2023/01/12 01:23:56;;;;;;;;;;;18.60;87.70;;;;;;5094544;28;20351;-56
2023/01/12 01:26:22;;;;;;;;;;;18.60;87.60;;;;;;5094634;28;19912;-56
2023/01/12 01:28:48;;;;;;;;;;;18.60;87.70;;;;;;5094059;28;19962;-54
2023/01/12 01:31:15;;;;;;;;;;;18.50;87.80;;;;;;5094949;28;19908;-56
2023/01/12 01:33:41;;;;;;;;;;;18.50;87.80;;;;;;5094492;28;20379;-56
2023/01/12 01:36:07;;;;;;;;;;;18.40;87.90;;;;;;5094593;28;19924;-53
2023/01/12 01:38:32;;;;;;;;;;;18.40;88.10;;;;;;5093720;28;20281;-52
2023/01/12 01:40:58;;;;;;;;;;;18.30;88.20;;;;;;5093523;28;20007;-55
2023/01/12 01:43:24;;;;;;;;;;;18.30;88.40;;;;;;5094521;28;19916;-54
2023/01/12 01:46:12;;;;;;;;;;;18.20;88.50;;;;;;5076364;28;19955;-54
2023/01/12 01:48:38;;;;;;;;;;;18.20;88.60;;;;;;5094176;28;19912;-56
2023/01/12 01:51:07;;;;;;;;;;;18.20;88.70;;;;;;5093822;28;19942;-54
2023/01/12 01:53:35;;;;;;;;;;;18.10;88.80;;;;;;5094124;28;19908;-53
2023/01/12 01:56:04;;;;;;;;;;;18.00;88.90;;;;;;5094428;28;19908;-53
2023/01/12 01:58:29;;;;;;;;;;;18.00;89.00;;;;;;5094395;28;19916;-55
2023/01/12 02:00:55;;;;;;;;;;;18.00;89.10;;;;;;5093131;28;19912;-54
2023/01/12 02:03:20;;;;;;;;;;;18.00;89.20;;;;;;5094326;28;19918;-55
2023/01/12 02:05:47;;;;;;;;;;;18.10;89.20;;;;;;5094346;28;20351;-55
2023/01/12 02:08:24;;;;;;;;;;;18.20;88.90;;;;;;5093676;28;20316;-55
2023/01/12 02:10:51;;;;;;;;;;;18.40;88.50;;;;;;5093134;28;20005;-57
2023/01/12 02:16:22;;;;;;;;;;;18.70;87.60;;;;;;5094004;28;20007;-54
2023/01/12 02:19:01;;;;;;;;;;;18.80;87.30;;;;;;5094236;28;19997;-56
2023/01/12 02:21:46;;;;;;;;;;;18.80;87.30;;;;;;5093016;28;20375;-55
2023/01/12 02:24:23;;;;;;;;;;;18.70;87.30;;;;;;5094079;28;19955;-56
2023/01/12 02:27:06;;;;;;;;;;;18.70;87.50;;;;;;5094153;28;19919;-56
2023/01/12 02:29:35;;;;;;;;;;;18.60;87.50;;;;;;5095208;28;20000;-57
2023/01/12 02:32:09;;;;;;;;;;;18.50;87.70;;;;;;5098571;28;19961;-55
2023/01/12 02:34:52;;;;;;;;;;;18.50;87.80;;;;;;5098185;28;19908;-54
2023/01/12 02:37:37;;;;;;;;;;;18.40;87.90;;;;;;5096937;28;20345;-56
2023/01/12 02:40:05;;;;;;;;;;;18.40;88.20;;;;;;5078216;28;19912;-55
2023/01/12 02:42:40;;;;;;;;;;;18.30;88.40;;;;;;5077728;28;19908;-54
2023/01/12 02:45:27;;;;;;;;;;;18.30;88.50;;;;;;5077739;28;20438;-55
2023/01/12 02:47:53;;;;;;;;;;;18.20;88.60;;;;;;5079151;28;20370;-56
2023/01/12 02:50:22;;;;;;;;;;;18.20;88.70;;;;;;5097884;28;19955;-55
2023/01/12 02:52:51;;;;;;;;;;;18.20;88.70;;;;;;5097559;28;19990;-54
2023/01/12 02:55:17;;;;;;;;;;;18.20;88.80;;;;;;5097559;28;19955;-56
2023/01/12 02:57:42;;;;;;;;;;;18.20;88.80;;;;;;5098047;28;19908;-54
2023/01/12 03:00:08;;;;;;;;;;;18.20;88.80;;;;;;5096774;28;20027;-56
2023/01/12 03:02:34;;;;;;;;;;;18.30;88.80;;;;;;5097375;28;19957;-52
2023/01/12 03:05:00;;;;;;;;;;;18.30;88.60;;;;;;5097278;28;19938;-55
2023/01/12 03:07:25;;;;;;;;;;;18.40;88.30;;;;;;5096211;28;19912;-51
2023/01/12 03:09:54;;;;;;;;;;;18.50;88.00;;;;;;5096350;28;19912;-54
2023/01/12 03:12:25;;;;;;;;;;;18.50;87.80;;;;;;5079525;28;20350;-55
2023/01/12 03:14:52;;;;;;;;;;;18.50;87.70;;;;;;5097184;28;19915;-51
2023/01/12 03:17:32;;;;;;;;;;;18.50;87.80;;;;;;5097069;28;19912;-56
2023/01/12 03:20:02;;;;;;;;;;;18.50;87.90;;;;;;5096436;28;19913;-55
2023/01/12 03:22:29;;;;;;;;;;;18.40;88.10;;;;;;5097612;28;19912;-54
2023/01/12 03:24:57;;;;;;;;;;;18.40;88.20;;;;;;5096909;28;19919;-53
2023/01/12 03:27:37;;;;;;;;;;;18.30;88.30;;;;;;5097171;28;19920;-55
2023/01/12 03:30:05;;;;;;;;;;;18.30;88.50;;;;;;5096641;28;19908;-55
2023/01/12 03:32:31;;;;;;;;;;;18.30;88.70;;;;;;5097007;28;19912;-53
2023/01/12 03:34:57;;;;;;;;;;;18.20;88.90;;;;;;5096705;28;19981;-56
2023/01/12 03:37:36;;;;;;;;;;;18.20;89.10;;;;;;5097241;28;19955;-54
2023/01/12 03:40:15;;;;;;;;;;;18.20;89.20;;;;;;5095733;28;19941;-56
2023/01/12 03:42:52;;;;;;;;;;;18.20;89.40;;;;;;5096653;28;19908;-53
2023/01/12 03:45:17;;;;;;;;;;;18.20;89.40;;;;;;5097143;28;19959;-55
2023/01/12 03:47:43;;;;;;;;;;;18.10;89.40;;;;;;5097075;28;19948;-56
2023/01/12 03:50:11;;;;;;;;;;;18.10;89.50;;;;;;5095506;28;19916;-52
2023/01/12 03:52:38;;;;;;;;;;;18.20;89.50;;;;;;5096399;28;19908;-55
2023/01/12 03:55:05;;;;;;;;;;;18.20;89.30;;;;;;5096660;28;19948;-52
2023/01/12 03:57:31;;;;;;;;;;;18.30;89.20;;;;;;5097022;28;19961;-52
2023/01/12 03:59:57;;;;;;;;;;;18.40;89.00;;;;;;5094661;28;19923;-52
2023/01/12 04:02:22;;;;;;;;;;;18.40;88.80;;;;;;5095308;28;20343;-56
2023/01/12 04:04:49;;;;;;;;;;;18.40;88.70;;;;;;5095678;28;19924;-56
2023/01/12 04:07:14;;;;;;;;;;;18.40;88.60;;;;;;5096425;28;19912;-52
2023/01/12 04:09:40;;;;;;;;;;;18.40;88.70;;;;;;5095945;28;20236;-56
2023/01/12 04:12:12;;;;;;;;;;;18.40;88.70;;;;;;5096356;28;19915;-55
2023/01/12 04:14:41;;;;;;;;;;;18.40;88.80;;;;;;5096225;28;19919;-55
2023/01/12 04:17:08;;;;;;;;;;;18.30;88.80;;;;;;5095889;28;19912;-56
2023/01/12 04:19:33;;;;;;;;;;;18.30;88.90;;;;;;5095218;28;19909;-56
2023/01/12 04:24:43;;;;;;;;;;;18.20;89.00;;;;;;5095783;28;19919;-55
2023/01/12 04:27:08;;;;;;;;;;;18.20;89.00;;;;;;5096009;28;20325;-54
2023/01/12 04:29:34;;;;;;;;;;;18.20;89.10;;;;;;5095991;28;19908;-56
2023/01/12 04:31:59;;;;;;;;;;;18.20;89.10;;;;;;5095098;28;19912;-55
2023/01/12 04:34:25;;;;;;;;;;;18.10;89.20;;;;;;5095660;28;19908;-55
2023/01/12 04:36:50;;;;;;;;;;;18.10;89.20;;;;;;5095811;28;19986;-55
2023/01/12 04:39:16;;;;;;;;;;;18.20;89.30;;;;;;5095493;28;20380;-56
2023/01/12 04:41:41;;;;;;;;;;;18.20;89.50;;;;;;5094786;28;20397;-55
2023/01/12 04:44:07;;;;;;;;;;;18.20;89.20;;;;;;5095608;28;20351;-55
2023/01/12 04:46:32;;;;;;;;;;;18.30;89.10;;;;;;5095647;28;19916;-57
2023/01/12 04:48:58;;;;;;;;;;;18.30;88.90;;;;;;5095249;28;19908;-54
2023/01/12 04:51:23;;;;;;;;;;;18.40;88.80;;;;;;5094552;28;19922;-54
2023/01/12 04:53:50;;;;;;;;;;;18.40;88.90;;;;;;5094962;28;19953;-56
2023/01/12 04:56:15;;;;;;;;;;;18.30;88.80;;;;;;5095452;28;20350;-56
2023/01/12 04:58:41;;;;;;;;;;;18.30;88.90;;;;;;5095134;28;19999;-54
2023/01/12 05:01:10;;;;;;;;;;;18.30;88.90;;;;;;5094358;28;19912;-55
2023/01/12 05:03:36;;;;;;;;;;;18.30;89.10;;;;;;5095002;28;20003;-56
2023/01/12 05:06:02;;;;;;;;;;;18.20;89.20;;;;;;5095249;28;19959;-54
2023/01/12 05:11:11;;;;;;;;;;;18.20;89.30;;;;;;5094965;28;19915;-55
2023/01/12 05:13:37;;;;;;;;;;;18.10;89.30;;;;;;5094329;28;19916;-56
2023/01/12 05:16:10;;;;;;;;;;;18.10;89.30;;;;;;5076864;28;19908;-57
2023/01/12 05:18:35;;;;;;;;;;;18.10;89.40;;;;;;5076795;28;19908;-56
2023/01/12 05:21:01;;;;;;;;;;;18.10;89.50;;;;;;5095134;28;20006;-56
2023/01/12 05:23:27;;;;;;;;;;;18.00;89.50;;;;;;5093828;28;19967;-56
2023/01/12 05:25:52;;;;;;;;;;;18.00;89.50;;;;;;5095170;28;19913;-57
2023/01/12 05:28:17;;;;;;;;;;;18.00;89.60;;;;;;5094895;28;20102;-57
2023/01/12 05:30:43;;;;;;;;;;;18.00;89.50;;;;;;5094809;28;19961;-56
2023/01/12 05:33:14;;;;;;;;;;;18.00;89.60;;;;;;5093462;28;19912;-55
2023/01/12 05:35:40;;;;;;;;;;;18.00;89.50;;;;;;5094305;28;19927;-57
2023/01/12 05:38:05;;;;;;;;;;;18.10;89.50;;;;;;5094182;28;19908;-56
2023/01/12 05:40:31;;;;;;;;;;;18.10;89.40;;;;;;5094505;28;20251;-56
2023/01/12 05:45:40;;;;;;;;;;;18.40;88.80;;;;;;5094632;28;19962;-57
2023/01/12 05:48:08;;;;;;;;;;;18.50;88.40;;;;;;5094173;28;19971;-57
2023/01/12 05:50:34;;;;;;;;;;;18.60;88.20;;;;;;5094365;28;19962;-56
2023/01/12 05:52:59;;;;;;;;;;;18.60;88.20;;;;;;5093486;28;19909;-56
2023/01/12 05:55:25;;;;;;;;;;;18.50;88.20;;;;;;5093975;28;19977;-57
2023/01/12 05:57:50;;;;;;;;;;;18.50;88.20;;;;;;5094216;28;19908;-56
2023/01/12 06:00:16;;;;;;;;;;;18.50;88.30;;;;;;5073274;28;20435;-58
2023/01/12 06:02:41;;;;;;;;;;;18.40;88.50;;;;;;5092657;28;19916;-54
2023/01/12 06:05:08;;;;;;;;;;;18.40;88.60;;;;;;5091248;28;19988;-55
2023/01/12 06:07:34;;;;;;;;;;;18.40;88.70;;;;;;5093778;28;19916;-52
2023/01/12 06:09:59;;;;;;;;;;;18.40;88.90;;;;;;5099694;28;19919;-55
2023/01/12 06:15:09;;;;;;;;;;;18.30;89.20;;;;;;5092527;28;20006;-57
2023/01/12 06:17:34;;;;;;;;;;;18.20;89.30;;;;;;5092067;28;19914;-55
2023/01/12 06:20:00;;;;;;;;;;;18.20;89.40;;;;;;5091909;28;20434;-57
2023/01/12 06:22:28;;;;;;;;;;;18.10;89.40;;;;;;5087339;28;19912;-57
2023/01/12 06:24:53;;;;;;;;;;;18.10;89.80;;;;;;5089993;28;19916;-57
2023/01/12 06:27:19;;;;;;;;;;;18.10;89.50;;;;;;5090091;28;20065;-56
2023/01/12 06:29:45;;;;;;;;;;;18.10;89.50;;;;;;5091339;28;19915;-55
2023/01/12 06:32:10;;;;;;;;;;;18.10;89.50;;;;;;5091400;28;19912;-57
2023/01/12 06:34:36;;;;;;;;;;;18.00;89.50;;;;;;5090426;28;19919;-55
2023/01/12 06:37:02;;;;;;;;;;;18.00;89.60;;;;;;5071444;28;19921;-56
2023/01/12 06:39:28;;;;;;;;;;;18.10;89.60;;;;;;5093744;28;20293;-57
2023/01/12 06:44:38;;;;;;;;;;;18.40;89.00;;;;;;5093274;28;19922;-57
2023/01/12 06:47:03;;;;;;;;;;;18.60;88.30;;;;;;5091670;28;19916;-54
2023/01/12 06:49:28;;;;;;;;;;;18.80;87.90;;;;;;5072406;28;19912;-57
2023/01/12 06:51:54;;;;;;;;;;;18.90;87.60;;;;;;5095608;28;20304;-57
2023/01/12 06:54:20;;;;;;;;;;;18.90;87.40;;;;;;5105847;28;19907;-58
2023/01/12 06:56:45;;;;;;;;;;;18.90;87.40;;;;;;5113517;28;19977;-57
2023/01/12 06:59:11;;;;;;;;;;;18.90;87.50;;;;;;5095597;28;19943;-57
2023/01/12 07:01:37;;;;;;;;;;;18.80;87.50;;;;;;5092199;28;19979;-56
2023/01/12 07:04:03;;;;;;;;;;;18.70;87.70;;;;;;5089667;28;20012;-56
2023/01/12 07:06:29;;;;;;;;;;;18.70;87.90;;;;;;5096327;28;20370;-57
2023/01/12 07:08:54;;;;;;;;;;;18.60;88.10;;;;;;5100367;28;19912;-58
2023/01/12 07:11:20;;;;;;;;;;;18.50;88.20;;;;;;5089615;28;20287;-56
2023/01/12 07:13:45;;;;;;;;;;;18.50;88.40;;;;;;5073658;28;19948;-56
2023/01/12 07:16:11;;;;;;;;;;;18.40;88.60;;;;;;5094357;28;19912;-57
2023/01/12 07:18:36;;;;;;;;;;;18.40;88.80;;;;;;5077048;28;19920;-56
2023/01/12 07:21:05;;;;;;;;;;;18.30;88.90;;;;;;5096671;28;19960;-57
2023/01/12 07:23:31;;;;;;;;;;;18.30;89.10;;;;;;5094725;28;19916;-55
2023/01/12 07:25:56;;;;;;;;;;;18.30;89.30;;;;;;5095217;28;19918;-57
2023/01/12 07:28:22;;;;;;;;;;;18.20;89.30;;;;;;5094824;28;19908;-52
2023/01/12 07:30:48;;;;;;;;;;;18.20;89.40;;;;;;5095145;28;19908;-56
2023/01/12 07:33:13;;;;;;;;;;;18.20;89.40;;;;;;5096098;28;20315;-57
2023/01/12 07:35:39;;;;;;;;;;;18.20;89.40;;;;;;5096432;28;19920;-55
2023/01/12 07:38:05;;;;;;;;;;;18.20;90.00;;;;;;5096864;28;19998;-57
2023/01/12 07:40:30;;;;;;;;;;;18.30;89.30;;;;;;5093203;28;20087;-55
2023/01/12 07:42:59;;;;;;;;;;;18.40;89.10;;;;;;5094549;28;20255;-53
2023/01/12 07:45:25;;;;;;;;;;;18.50;88.80;;;;;;5094852;28;19927;-54
2023/01/12 07:47:51;;;;;;;;;;;18.60;88.30;;;;;;5096559;28;20267;-56
2023/01/12 07:50:17;;;;;;;;;;;18.60;88.20;;;;;;5078433;28;19912;-57
2023/01/12 07:52:42;;;;;;;;;;;18.70;88.10;;;;;;5095203;28;19919;-56
2023/01/12 07:55:08;;;;;;;;;;;18.70;88.10;;;;;;5094063;28;20420;-54
2023/01/12 07:57:36;;;;;;;;;;;18.70;88.30;;;;;;5095552;28;19918;-54
2023/01/12 08:00:03;;;;;;;;;;;18.60;88.70;;;;;;5107578;28;19911;-54
2023/01/12 08:02:28;;;;;;;;;;;18.60;88.70;;;;;;5098339;28;19919;-53
2023/01/12 08:04:54;;;;;;;;;;;18.60;88.90;;;;;;5093955;28;19916;-54
2023/01/12 08:07:19;;;;;;;;;;;18.50;89.00;;;;;;5092184;28;20010;-59
2023/01/12 08:09:45;;;;;;;;;;;18.50;89.20;;;;;;5092656;28;19957;-55
2023/01/12 08:12:10;;;;;;;;;;;18.40;89.30;;;;;;5100410;28;19919;-55
2023/01/12 08:14:37;;;;;;;;;;;18.40;89.40;;;;;;5098334;28;19912;-54
2023/01/12 08:17:05;;;;;;;;;;;18.30;89.50;;;;;;5101522;28;19934;-58
2023/01/12 08:19:37;;;;;;;;;;;18.30;89.30;;;;;;5100156;28;19912;-58
2023/01/12 08:22:04;;;;;;;;;;;18.30;89.10;;;;;;5093060;28;20003;-58
2023/01/12 08:24:34;;;;;;;;;;;18.30;89.40;;;;;;5089816;28;19927;-58
2023/01/12 08:27:02;;;;;;;;;;;18.30;89.50;;;;;;5101268;28;19916;-58
2023/01/12 08:29:31;;;;;;;;;;;18.20;89.50;;;;;;5091405;28;19959;-59
2023/01/12 08:31:58;;;;;;;;;;;18.20;89.50;;;;;;5094660;28;19911;-59
2023/01/12 08:34:25;;;;;;;;;;;18.30;89.50;;;;;;5077285;28;20313;-58
2023/01/12 08:36:50;;;;;;;;;;;18.30;89.30;;;;;;5094339;28;20273;-59
2023/01/12 08:39:16;;;;;;;;;;;18.40;89.50;;;;;;5095439;28;19908;-59
2023/01/12 08:41:43;;;;;;;;;;;18.50;88.70;;;;;;5094039;28;20344;-58
2023/01/12 08:44:12;;;;;;;;;;;18.50;88.40;;;;;;5095062;28;19920;-59
2023/01/12 08:46:48;;;;;;;;;;;18.60;88.30;;;;;;5095160;28;20048;-58
2023/01/12 08:49:13;;;;;;;;;;;18.60;88.20;;;;;;5076926;28;19908;-59
2023/01/12 08:51:39;;;;;;;;;;;18.60;88.20;;;;;;5103293;28;20243;-59
2023/01/12 08:54:06;;;;;;;;;;;18.50;88.20;;;;;;5094899;28;19981;-59
2023/01/12 08:56:32;;;;;;;;;;;18.50;88.30;;;;;;5102695;28;19920;-59
2023/01/12 08:58:57;;;;;;;;;;;18.40;88.30;;;;;;5091492;28;20006;-58
2023/01/12 09:01:23;;;;;;;;;;;18.40;88.50;;;;;;5100302;28;20007;-58
2023/01/12 09:03:48;;;;;;;;;;;18.40;88.60;;;;;;5100824;28;20010;-58
2023/01/12 09:06:25;;;;;;;;;;;18.30;86.90;;;;;;5093061;28;20016;-53
2023/01/12 09:08:55;;;;;;;;;;;18.30;87.90;;;;;;5081938;28;19940;-60
2023/01/12 09:11:21;;;;;;;;;;;18.20;88.40;;;;;;5092558;28;19974;-53
2023/01/12 09:13:46;;;;;;;;;;;18.20;88.70;;;;;;5093792;28;20248;-54
2023/01/12 09:16:13;;;;;;;;;;;18.20;88.80;;;;;;5094324;28;19943;-54
2023/01/12 09:18:38;;;;;;;;;;;18.20;88.80;;;;;;5094622;28;19909;-58
2023/01/12 09:21:05;;;;;;;;;;;18.10;88.90;;;;;;5091076;28;20286;-58
2023/01/12 09:23:31;;;;;;;;;;;18.10;88.70;;;;;;5092013;28;20022;-56
2023/01/12 09:26:01;;;;;;;;;;;18.10;88.70;;;;;;5105936;28;20414;-53
2023/01/12 09:28:26;;;;;;;;;;;18.10;88.90;;;;;;5112193;28;19903;-57
2023/01/12 09:30:52;;;;;;;;;;;18.10;89.10;;;;;;5092519;28;19953;-55
2023/01/12 09:33:17;;;;;;;;;;;18.10;89.00;;;;;;5093293;28;19926;-56
2023/01/12 09:35:43;;;;;;;;;;;18.20;89.00;;;;;;5093211;28;19916;-60
2023/01/12 09:38:10;;;;;;;;;;;18.30;88.90;;;;;;5091871;28;20372;-61
2023/01/12 09:40:35;;;;;;;;;;;18.30;88.80;;;;;;5091900;28;19916;-62
2023/01/12 09:48:29;;;;;;;;;;;18.40;88.60;;;;;;5073293;28;20030;-62
2023/01/12 09:50:58;;;;;;;;;;;18.40;88.50;;;;;;5086657;28;19950;-60
2023/01/12 09:53:26;;;;;;;;;;;18.40;88.70;;;;;;5075809;28;19912;-62
2023/01/12 09:56:02;;;;;;;;;;;18.40;88.80;;;;;;5111322;28;19914;-61
2023/01/12 09:58:28;;;;;;;;;;;18.40;88.90;;;;;;5105401;28;20376;-64
2023/01/12 10:00:55;;;;;;;;;;;18.30;89.00;;;;;;5094039;28;19904;-64
2023/01/12 10:03:40;;;;;;;;;;;18.30;89.10;;;;;;5091709;28;19908;-62
2023/01/12 10:06:08;;;;;;;;;;;18.30;89.30;;;;;;5108289;28;19973;-63
2023/01/12 10:08:36;;;;;;;;;;;18.30;89.30;;;;;;5085554;28;20322;-60
2023/01/12 10:11:01;;;;;;;;;;;18.20;89.40;;;;;;5092593;28;20377;-61
2023/01/12 10:13:43;;;;;;;;;;;18.20;89.40;;;;;;5091805;28;19931;-59
2023/01/12 10:16:15;;;;;;;;;;;18.20;89.40;;;;;;5082026;28;20345;-58
2023/01/12 10:18:43;;;;;;;;;;;18.20;89.40;;;;;;5089589;28;19943;-58
2023/01/12 10:21:09;;;;;;;;;;;18.20;89.50;;;;;;5092468;28;19912;-60
2023/01/12 10:23:35;;;;;;;;;;;18.20;89.60;;;;;;5078750;28;19916;-58
2023/01/12 10:26:13;;;;;;;;;;;18.20;89.20;;;;;;5092474;28;20408;-59
2023/01/12 10:28:43;;;;;;;;;;;18.20;89.40;;;;;;5090280;28;19912;-57
2023/01/12 10:31:14;;;;;;;;;;;18.30;89.30;;;;;;5075613;28;20269;-58
2023/01/12 10:33:59;;;;;;;;;;;18.30;89.10;;;;;;5093351;28;19908;-58
2023/01/12 10:36:24;;;;;;;;;;;18.40;88.80;;;;;;5090093;28;20383;-58
2023/01/12 10:38:55;;;;;;;;;;;18.50;88.60;;;;;;5093606;28;19962;-57
2023/01/12 10:41:21;;;;;;;;;;;18.50;88.20;;;;;;5093536;28;19915;-58
2023/01/12 10:43:59;;;;;;;;;;;18.60;88.20;;;;;;5093478;28;20015;-54
2023/01/12 10:46:26;;;;;;;;;;;18.60;88.20;;;;;;5075383;28;20007;-56
2023/01/12 10:48:52;;;;;;;;;;;18.50;88.20;;;;;;5104862;28;20373;-58
2023/01/12 10:51:24;;;;;;;;;;;18.50;88.20;;;;;;5095090;28;19920;-58
2023/01/12 10:54:10;;;;;;;;;;;18.50;88.30;;;;;;5088777;28;19912;-57
2023/01/12 10:56:36;;;;;;;;;;;18.40;88.40;;;;;;5097096;28;20404;-57
2023/01/12 10:59:03;;;;;;;;;;;18.40;88.50;;;;;;5095508;28;19973;-57
2023/01/12 11:01:47;;;;;;;;;;;18.30;88.50;;;;;;5079063;28;19912;-58
2023/01/12 11:04:14;;;;;;;;;;;18.30;88.60;;;;;;5090984;28;20017;-56
2023/01/12 11:06:43;;;;;;;;;;;18.30;88.70;;;;;;5096983;28;19929;-57
2023/01/12 11:09:22;;;;;;;;;;;18.30;88.70;;;;;;5087983;28;19924;-56
2023/01/12 11:11:51;;;;;;;;;;;18.20;88.80;;;;;;5080817;28;22113;-58
2023/01/12 11:14:19;;;;;;;;;;;18.20;88.90;;;;;;5095673;28;19971;-56
2023/01/12 11:16:48;;;;;;;;;;;18.20;89.10;;;;;;5096848;28;19998;-57
2023/01/12 11:19:18;;;;;;;;;;;18.10;89.10;;;;;;5078488;28;19908;-57
2023/01/12 11:21:56;;;;;;;;;;;18.20;89.10;;;;;;5105291;28;20002;-57
2023/01/12 11:24:27;;;;;;;;;;;18.20;89.10;;;;;;5099173;28;19912;-57
2023/01/12 11:26:58;;;;;;;;;;;18.20;89.10;;;;;;5103315;28;20006;-57
2023/01/12 11:29:36;;;;;;;;;;;18.20;88.90;;;;;;5113650;28;19908;-56
2023/01/12 11:32:09;;;;;;;;;;;18.30;88.90;;;;;;5093348;28;19934;-57
2023/01/12 11:34:37;;;;;;;;;;;18.30;88.70;;;;;;5101499;28;19961;-58
2023/01/12 11:37:13;;;;;;;;;;;18.30;88.50;;;;;;5104417;28;20286;-57
2023/01/12 11:39:40;;;;;;;;;;;18.40;88.40;;;;;;5097552;28;19969;-56
2023/01/12 11:45:11;;;;;;;;;;;18.40;88.40;;;;;;5094371;28;20142;-58
2023/01/12 11:47:39;;;;;;;;;;;18.40;88.40;;;;;;5116162;28;19916;-56
2023/01/12 11:50:14;;;;;;;;;;;18.30;88.40;;;;;;5116577;28;19912;-56
2023/01/12 11:52:40;;;;;;;;;;;18.30;88.40;;;;;;5098366;28;19949;-58
2023/01/12 11:55:11;;;;;;;;;;;18.30;88.60;;;;;;5094288;28;19975;-57
2023/01/12 11:57:36;;;;;;;;;;;18.30;88.60;;;;;;5112627;28;19912;-57
2023/01/12 12:00:21;;;;;;;;;;;18.20;88.70;;;;;;5106132;28;19915;-56
2023/01/12 12:03:03;;;;;;;;;;;18.20;89.20;;;;;;5094867;28;19916;-57
2023/01/12 12:05:28;;;;;;;;;;;18.20;88.80;;;;;;5095231;28;19920;-58
2023/01/12 12:08:14;;;;;;;;;;;18.20;88.80;;;;;;5075023;28;19954;-58
2023/01/12 12:10:40;;;;;;;;;;;18.20;88.80;;;;;;5075069;28;19935;-57
2023/01/12 12:13:05;;;;;;;;;;;18.20;88.90;;;;;;5074420;28;20386;-58
2023/01/12 12:15:37;;;;;;;;;;;18.20;88.90;;;;;;5076165;28;19935;-59
2023/01/12 12:18:03;;;;;;;;;;;18.20;88.80;;;;;;5093752;28;19908;-58
2023/01/12 12:20:36;;;;;;;;;;;18.20;88.80;;;;;;5091407;28;19912;-57
2023/01/12 12:23:08;;;;;;;;;;;18.20;88.60;;;;;;5112787;28;19918;-58
2023/01/12 12:25:52;;;;;;;;;;;18.30;88.50;;;;;;5096062;28;19922;-58
2023/01/12 12:28:24;;;;;;;;;;;18.30;88.40;;;;;;5076095;28;19984;-57
2023/01/12 12:30:56;;;;;;;;;;;18.30;88.40;;;;;;5095390;28;19961;-57
2023/01/12 12:33:24;;;;;;;;;;;18.30;88.30;;;;;;5093573;28;19908;-58
2023/01/12 12:35:50;;;;;;;;;;;18.30;88.40;;;;;;5090986;28;19920;-59
2023/01/12 12:38:39;;;;;;;;;;;18.30;88.40;;;;;;5098849;28;19912;-57
2023/01/12 12:46:56;;;;;;;;;;;18.20;88.50;;;;;;5106963;28;19961;-46
2023/01/12 12:49:26;;;;;;;;;;;18.20;88.60;;;;;;5076456;28;19999;-53
2023/01/12 12:51:51;;;;;;;;;;;18.20;88.50;;;;;;5091898;28;20374;-50
2023/01/12 12:54:19;;;;;;;;;;;18.30;88.30;;;;;;5087569;28;19951;-52
2023/01/12 12:56:45;;;;;;;;;;;18.20;87.90;;;;;;5104046;28;19957;-51
2023/01/12 12:59:29;;;;;;;;;;;18.10;88.00;;;;;;5106580;28;19912;-49
2023/01/12 13:01:55;;;;;;;;;;;18.10;88.00;;;;;;5091146;28;19939;-51
2023/01/12 13:04:40;;;;;;;;;;;18.10;88.50;;;;;;5089848;28;19916;-49
2023/01/12 13:07:06;;;;;;;;;;;18.10;87.60;;;;;;5076269;28;19951;-52
2023/01/12 13:09:33;;;;;;;;;;;18.10;88.70;;;;;;5094927;28;20002;-48
2023/01/12 13:11:59;;;;;;;;;;;18.10;88.80;;;;;;5094680;28;19954;-50
2023/01/12 13:14:32;;;;;;;;;;;18.10;88.90;;;;;;5092815;28;19912;-50
2023/01/12 13:16:57;;;;;;;;;;;18.00;88.90;;;;;;5092621;28;19916;-48
2023/01/12 13:19:32;;;;;;;;;;;18.10;88.90;;;;;;5094621;28;19913;-51
2023/01/12 13:22:15;;;;;;;;;;;18.00;88.90;;;;;;5096829;28;19943;-50
2023/01/12 13:24:41;;;;;;;;;;;18.00;88.90;;;;;;5094452;28;20192;-46
2023/01/12 13:27:25;;;;;;;;;;;18.00;88.90;;;;;;5100796;28;19949;-53
2023/01/12 13:29:51;;;;;;;;;;;18.00;88.80;;;;;;5089981;28;19935;-52
2023/01/12 13:32:28;;;;;;;;;;;18.00;86.50;;;;;;5089010;28;19912;-49
2023/01/12 13:34:54;;;;;;;;;;;18.00;87.60;;;;;;5104041;28;20354;-49
2023/01/12 13:37:27;;;;;;;;;;;18.10;88.20;;;;;;5091477;28;19965;-48
2023/01/12 13:40:31;;;;;;;;;;;18.10;88.50;;;;;;5092625;28;19909;-51
2023/01/12 13:43:15;;;;;;;;;;;18.10;88.60;;;;;;5031592;28;19955;-48
2023/01/12 13:45:50;;;;;;;;;;;18.20;88.60;;;;;;5030038;28;19960;-50
2023/01/12 13:48:17;;;;;;;;;;;18.20;88.50;;;;;;5072403;28;19995;-51
2023/01/12 13:50:57;;;;;;;;;;;18.20;88.30;;;;;;5094300;28;19930;-52
2023/01/12 13:53:25;;;;;;;;;;;18.30;88.20;;;;;;5094181;28;19912;-48
2023/01/12 13:56:03;;;;;;;;;;;18.40;88.10;;;;;;5093245;28;19918;-51
2023/01/12 13:58:37;;;;;;;;;;;18.40;87.90;;;;;;5092731;28;20267;-50
2023/01/12 14:01:04;;;;;;;;;;;18.40;87.80;;;;;;5092807;28;20347;-49
2023/01/12 14:03:47;;;;;;;;;;;18.40;87.80;;;;;;5091054;28;19920;-50
2023/01/12 14:06:31;;;;;;;;;;;18.40;87.80;;;;;;5093174;28;19916;-48
2023/01/12 14:09:03;;;;;;;;;;;18.40;88.00;;;;;;5093863;28;19912;-51
2023/01/12 14:11:28;;;;;;;;;;;18.40;88.10;;;;;;5093674;28;19920;-52
2023/01/12 14:13:54;;;;;;;;;;;18.30;88.20;;;;;;5093686;28;19908;-47
2023/01/12 14:19:37;;;;;;;;;;;18.20;88.50;;;;;;5093740;28;19914;-51
2023/01/12 14:22:03;;;;;;;;;;;18.20;88.70;;;;;;5046687;28;20359;-47
2023/01/12 14:24:29;;;;;;;;;;;18.20;88.80;;;;;;5071944;28;19916;-48
2023/01/12 14:26:54;;;;;;;;;;;18.10;88.70;;;;;;5104733;28;19976;-48
2023/01/12 14:29:20;;;;;;;;;;;18.10;89.00;;;;;;5102439;28;20332;-54
2023/01/12 14:31:49;;;;;;;;;;;18.10;88.80;;;;;;5098468;28;20287;-48
2023/01/12 14:34:30;;;;;;;;;;;18.10;88.80;;;;;;5089333;28;19948;-48
2023/01/12 14:36:56;;;;;;;;;;;18.10;88.80;;;;;;5097726;28;19995;-48
2023/01/12 14:39:23;;;;;;;;;;;18.00;88.80;;;;;;5099209;28;19951;-52
2023/01/12 14:47:27;;;;;;;;;;;18.00;88.90;;;;;;5118014;28;20270;-50
2023/01/12 14:49:52;;;;;;;;;;;18.00;88.90;;;;;;5109140;28;19943;-51
2023/01/12 14:52:21;;;;;;;;;;;18.00;88.90;;;;;;5097497;28;19916;-49
2023/01/12 14:54:47;;;;;;;;;;;18.10;88.70;;;;;;5094438;28;19965;-49
2023/01/12 14:57:28;;;;;;;;;;;18.10;88.60;;;;;;5096208;28;19912;-50
2023/01/12 14:59:53;;;;;;;;;;;18.20;88.50;;;;;;5097172;28;19908;-51
2023/01/12 15:02:27;;;;;;;;;;;18.30;88.10;;;;;;5103901;28;20366;-51
2023/01/12 15:04:55;;;;;;;;;;;18.40;87.90;;;;;;5094752;28;19916;-52
2023/01/12 15:07:22;;;;;;;;;;;18.50;87.60;;;;;;5108468;28;19925;-57
2023/01/12 15:09:52;;;;;;;;;;;18.60;87.30;;;;;;5094975;28;19918;-51